Terminal Aerodrome Forecast
Issued by NWS

Home | Current Version | Previous Version | Text Only | Print | Product List | Glossary On
Versions: 1 2 3 4 5 6 7 8 9 10 11 12 13 14 15 16 17 18 19
650
FTUS45 KTFX 191120
TAFHVR
TAF
KHVR 191120Z 1912/2012 VRB06KT P6SM BKN070 BKN150
      TEMPO 1912/1916 -FZRA OVC050
     FM191800 27010KT P6SM OVC070
     FM200300 23012KT P6SM BKN070=

USA.gov is the U.S. government's official web portal to all federal, state and local government web resources and services.